createdAt,value
2023-05-10T00:00:14.253Z,105.47
2023-05-10T00:01:14.166Z,105.13
2023-05-10T00:02:14.274Z,107.39
2023-05-10T00:03:14.378Z,103.71
2023-05-10T00:04:14.468Z,104.37
2023-05-10T00:05:14.414Z,106.31
2023-05-10T00:06:14.464Z,103.52
2023-05-10T00:07:14.545Z,103.48
2023-05-10T00:08:14.612Z,104.47
2023-05-10T00:09:14.649Z,104.64
2023-05-10T00:10:14.838Z,104.92
2023-05-10T00:11:14.777Z,102.58
2023-05-10T00:12:14.821Z,103.69
2023-05-10T00:13:14.919Z,101.31
2023-05-10T00:14:14.972Z,103.04
2023-05-10T00:15:15.031Z,101.84
2023-05-10T00:16:15.107Z,104.00
2023-05-10T00:17:15.206Z,100.62
2023-05-10T00:18:15.211Z,105.43
2023-05-10T00:19:15.261Z,101.84
2023-05-10T00:20:15.501Z,102.63
2023-05-10T00:21:15.401Z,104.18
2023-05-10T00:22:15.470Z,103.73
2023-05-10T00:23:15.523Z,103.19
2023-05-10T00:24:15.584Z,103.92
2023-05-10T00:25:15.641Z,103.88
2023-05-10T00:26:15.789Z,103.53
2023-05-10T00:27:15.787Z,105.76
2023-05-10T00:28:15.821Z,104.26
2023-05-10T00:29:15.865Z,101.78
2023-05-10T00:30:16.284Z,104.51
2023-05-10T00:31:15.994Z,105.56
2023-05-10T00:32:16.092Z,103.79
2023-05-10T00:33:16.148Z,105.38
2023-05-10T00:34:16.199Z,105.34
2023-05-10T00:35:16.246Z,104.78
2023-05-10T00:36:16.317Z,102.30
2023-05-10T00:37:16.372Z,103.69
2023-05-10T00:38:16.437Z,105.21
2023-05-10T00:39:16.504Z,104.96
2023-05-10T00:40:16.771Z,104.12
2023-05-10T00:41:16.633Z,105.44
2023-05-10T00:42:16.675Z,102.34
2023-05-10T00:43:16.798Z,104.35
2023-05-10T00:44:16.796Z,104.28
2023-05-10T00:45:16.888Z,103.33
2023-05-10T00:46:17.004Z,104.58
2023-05-10T00:47:16.989Z,101.92
2023-05-10T00:48:17.052Z,103.40
2023-05-10T00:49:17.109Z,104.53
2023-05-10T00:50:17.325Z,104.04
2023-05-10T00:51:17.222Z,103.14
2023-05-10T00:52:17.278Z,105.80
2023-05-10T00:53:17.367Z,103.32
2023-05-10T00:54:17.429Z,102.66
2023-05-10T00:55:17.480Z,103.95
2023-05-10T00:56:17.533Z,102.45
2023-05-10T00:57:17.602Z,101.62
2023-05-10T00:58:17.674Z,103.34
2023-05-10T00:59:17.730Z,101.52
2023-05-10T01:00:17.890Z,101.34
2023-05-10T01:01:17.856Z,100.41
2023-05-10T01:02:17.921Z,103.57
2023-05-10T01:03:18.155Z,101.83
2023-05-10T01:04:18.054Z,102.19
2023-05-10T01:05:18.207Z,102.76
2023-05-10T01:06:18.154Z,97.41
2023-05-10T01:07:18.219Z,102.58
2023-05-10T01:08:18.266Z,101.82
2023-05-10T01:09:18.349Z,100.77
2023-05-10T01:10:18.591Z,102.33
2023-05-10T01:11:18.453Z,100.53
2023-05-10T01:12:18.543Z,100.63
2023-05-10T01:13:18.629Z,100.72
2023-05-10T01:14:18.665Z,101.63
2023-05-10T01:15:18.718Z,101.17
2023-05-10T01:16:18.865Z,103.27
2023-05-10T01:17:18.841Z,101.20
2023-05-10T01:28:48.631Z,25.00
2023-05-10T01:29:50.272Z,25.00
2023-05-10T01:30:49.547Z,25.00
2023-05-10T01:31:48.618Z,25.00
2023-05-10T01:32:48.578Z,25.00
2023-05-10T01:33:48.537Z,25.00
2023-05-10T01:34:48.559Z,25.00
2023-05-10T01:35:48.505Z,25.20
2023-05-10T01:36:48.502Z,26.83
2023-05-10T01:37:48.509Z,25.00
2023-05-10T01:38:49.240Z,26.28
2023-05-10T01:39:48.598Z,25.00
2023-05-10T01:40:48.646Z,30.31
2023-05-10T01:41:48.723Z,25.13
2023-05-10T01:42:48.799Z,25.22
2023-05-10T01:43:48.854Z,25.30
2023-05-10T01:44:48.927Z,25.00
2023-05-10T01:45:48.980Z,25.00
2023-05-10T01:46:49.053Z,30.06
2023-05-10T01:47:49.147Z,25.88
2023-05-10T01:48:49.182Z,25.48
2023-05-10T01:49:49.255Z,25.95
2023-05-10T01:50:49.261Z,30.41
2023-05-10T01:51:49.330Z,25.24
2023-05-10T01:52:49.400Z,28.30
2023-05-10T01:53:49.528Z,26.94
2023-05-10T01:54:49.563Z,27.11
2023-05-10T01:55:49.591Z,29.78
2023-05-10T01:56:49.634Z,30.50
2023-05-10T01:57:49.702Z,26.92
2023-05-10T01:58:49.755Z,27.41
2023-05-10T01:59:49.801Z,25.82
2023-05-10T02:00:49.882Z,27.70
2023-05-10T02:01:49.904Z,29.64
2023-05-10T02:02:50.065Z,28.28
2023-05-10T02:03:50.098Z,25.98
2023-05-10T02:04:50.090Z,28.72
2023-05-10T02:05:50.164Z,29.55
2023-05-10T02:06:50.231Z,25.00
2023-05-10T02:07:50.320Z,30.83
2023-05-10T02:08:50.393Z,31.60
2023-05-10T02:09:50.509Z,33.57
2023-05-10T02:10:50.466Z,31.24
2023-05-10T02:11:50.535Z,28.31
2023-05-10T02:12:50.650Z,31.01
2023-05-10T02:13:50.671Z,29.37
2023-05-10T02:14:50.715Z,29.04
2023-05-10T02:15:50.829Z,28.96
2023-05-10T02:16:51.008Z,28.82
2023-05-10T02:17:50.910Z,28.43
2023-05-10T02:18:50.967Z,28.60
2023-05-10T02:19:51.049Z,29.11
2023-05-10T02:20:51.071Z,28.23
2023-05-10T02:21:51.140Z,29.28
2023-05-10T02:22:51.178Z,28.16
2023-05-10T02:23:51.286Z,27.65
2023-05-10T02:24:51.302Z,29.31
2023-05-10T02:25:51.374Z,28.91
2023-05-10T02:26:51.466Z,27.88
2023-05-10T02:27:51.540Z,27.30
2023-05-10T02:28:51.618Z,25.71
2023-05-10T02:29:51.622Z,27.67
2023-05-10T02:30:51.665Z,29.14
2023-05-10T02:31:51.823Z,29.42
2023-05-10T02:32:51.886Z,29.42
2023-05-10T02:33:51.901Z,27.72
2023-05-10T02:34:51.939Z,29.69
2023-05-10T02:35:52.009Z,32.57
2023-05-10T02:36:52.060Z,31.34
2023-05-10T02:37:52.118Z,29.03
2023-05-10T02:38:52.208Z,32.58
2023-05-10T02:39:52.249Z,31.57
2023-05-10T02:40:52.321Z,30.16
2023-05-10T02:41:52.411Z,30.84
2023-05-10T02:42:52.443Z,31.94
2023-05-10T02:43:52.501Z,30.94
2023-05-10T02:44:52.570Z,30.03
2023-05-10T02:45:52.699Z,32.45
2023-05-10T02:46:52.677Z,31.70
2023-05-10T02:47:52.756Z,34.09
2023-05-10T02:48:52.812Z,32.39
2023-05-10T02:49:52.848Z,29.28
2023-05-10T02:50:52.919Z,34.77
2023-05-10T02:51:52.961Z,30.41
2023-05-10T02:52:53.065Z,33.29
2023-05-10T02:53:53.112Z,28.78
2023-05-10T02:54:53.152Z,30.94
2023-05-10T02:55:53.205Z,33.45
2023-05-10T02:56:53.268Z,30.40
2023-05-10T02:57:53.348Z,33.90
2023-05-10T02:58:53.431Z,29.77
2023-05-10T02:59:53.445Z,28.34
2023-05-10T03:00:53.516Z,32.00
2023-05-10T03:01:53.563Z,34.15
2023-05-10T03:02:53.674Z,31.39
2023-05-10T03:03:53.684Z,32.12
2023-05-10T03:04:53.924Z,29.93
2023-05-10T03:05:53.774Z,30.34
2023-05-10T03:06:53.869Z,29.59
2023-05-10T03:07:53.899Z,33.10
2023-05-10T03:08:54.002Z,33.75
2023-05-10T03:09:54.006Z,31.47
2023-05-10T03:10:54.082Z,32.81
2023-05-10T03:11:54.156Z,31.47
2023-05-10T03:12:54.297Z,31.53
2023-05-10T03:13:54.247Z,31.34
2023-05-10T03:14:54.336Z,29.66
2023-05-10T03:15:54.423Z,29.83
2023-05-10T03:16:54.427Z,29.27
2023-05-10T03:17:54.524Z,31.92
2023-05-10T03:18:54.558Z,29.70
2023-05-10T03:19:54.635Z,33.30
2023-05-10T03:20:54.695Z,33.91
2023-05-10T03:21:54.777Z,31.77
2023-05-10T03:22:54.803Z,31.30
2023-05-10T03:23:54.908Z,32.52
2023-05-10T03:24:54.905Z,32.50
2023-05-10T03:25:54.947Z,31.34
2023-05-10T03:26:55.014Z,30.64
2023-05-10T03:27:55.085Z,31.93
2023-05-10T03:28:55.160Z,31.29
2023-05-10T03:29:55.210Z,32.18
2023-05-10T03:30:55.286Z,32.66
2023-05-10T03:31:55.519Z,30.55
2023-05-10T03:32:55.441Z,32.71
2023-05-10T03:33:55.454Z,27.52
2023-05-10T03:34:55.514Z,31.41
2023-05-10T03:35:55.541Z,31.29
2023-05-10T03:36:55.718Z,30.88
2023-05-10T03:37:55.674Z,28.69
2023-05-10T03:38:55.725Z,29.73
2023-05-10T03:39:55.751Z,29.64
2023-05-10T03:40:55.790Z,30.32
2023-05-10T03:41:55.843Z,30.70
2023-05-10T03:42:55.893Z,31.98
2023-05-10T03:43:55.990Z,31.47
2023-05-10T03:44:55.970Z,30.20
2023-05-10T03:45:56.002Z,35.08
2023-05-10T03:46:56.059Z,28.38
2023-05-10T03:47:56.191Z,32.63
2023-05-10T03:48:56.134Z,32.16
2023-05-10T03:49:56.138Z,31.60
2023-05-10T03:50:56.183Z,32.15
2023-05-10T03:51:56.228Z,32.96
2023-05-10T03:52:56.269Z,32.67
2023-05-10T03:53:56.292Z,31.38
2023-05-10T03:54:56.323Z,29.85
2023-05-10T03:55:56.363Z,31.20
2023-05-10T03:56:56.394Z,30.78
2023-05-10T03:57:56.426Z,30.71
2023-05-10T03:58:56.500Z,34.21
2023-05-10T03:59:56.543Z,32.29
2023-05-10T04:00:56.616Z,34.91
2023-05-10T04:01:56.674Z,30.46
2023-05-10T04:02:56.760Z,31.70
2023-05-10T04:03:56.825Z,32.91
2023-05-10T04:04:56.816Z,29.99
2023-05-10T04:05:56.890Z,34.39
2023-05-10T04:06:56.888Z,30.92
2023-05-10T04:07:56.947Z,32.94
2023-05-10T04:08:57.121Z,33.70
2023-05-10T04:09:57.022Z,31.40
2023-05-10T04:10:57.062Z,33.91
2023-05-10T04:11:57.104Z,33.37
2023-05-10T04:12:57.152Z,31.45
2023-05-10T04:13:57.142Z,31.86
2023-05-10T04:14:57.180Z,33.42
2023-05-10T04:15:57.172Z,35.14
2023-05-10T04:16:57.232Z,30.33
2023-05-10T04:17:57.290Z,31.99
2023-05-10T04:18:57.260Z,33.01
2023-05-10T04:19:57.287Z,32.70
2023-05-10T04:20:57.327Z,31.00
2023-05-10T04:21:57.389Z,31.40
2023-05-10T04:22:57.446Z,30.64
2023-05-10T04:23:57.505Z,35.25
2023-05-10T04:24:57.568Z,34.01
2023-05-10T04:25:57.567Z,31.86
2023-05-10T04:26:57.994Z,31.58
2023-05-10T04:27:57.692Z,31.79
2023-05-10T04:28:57.745Z,33.68
2023-05-10T04:29:57.779Z,34.23
2023-05-10T04:30:57.871Z,33.94
2023-05-10T04:31:57.880Z,35.70
2023-05-10T04:32:57.960Z,33.01
2023-05-10T04:33:57.993Z,36.23
2023-05-10T04:34:58.050Z,33.42
2023-05-10T04:35:58.122Z,34.54
2023-05-10T04:36:58.164Z,33.65
2023-05-10T04:37:58.230Z,30.92
2023-05-10T04:38:58.301Z,31.83
2023-05-10T04:39:58.392Z,31.82
2023-05-10T04:40:58.436Z,33.65
2023-05-10T04:41:58.504Z,32.33
2023-05-10T04:42:58.547Z,31.71
2023-05-10T04:43:58.652Z,30.84
2023-05-10T04:44:58.679Z,36.29
2023-05-10T04:45:58.772Z,32.98
2023-05-10T04:46:58.805Z,32.90
2023-05-10T04:47:58.850Z,32.32
2023-05-10T04:48:58.902Z,31.34
2023-05-10T04:49:58.920Z,32.13
2023-05-10T04:50:58.930Z,33.15
2023-05-10T04:51:58.975Z,32.77
2023-05-10T04:52:59.037Z,32.44
2023-05-10T04:54:06.129Z,32.98
2023-05-10T04:55:00.076Z,33.22
2023-05-10T04:55:59.129Z,33.42
2023-05-10T04:56:59.091Z,33.08
2023-05-10T04:57:59.054Z,29.63
2023-05-10T04:58:59.080Z,34.58
2023-05-10T04:59:59.069Z,32.76
2023-05-10T05:00:59.048Z,33.91
2023-05-10T05:01:59.130Z,32.24
2023-05-10T05:02:59.100Z,29.43
2023-05-10T05:03:59.245Z,31.39
2023-05-10T05:04:59.084Z,30.54
2023-05-10T05:05:59.133Z,32.31
2023-05-10T05:06:59.156Z,32.34
2023-05-10T05:07:59.219Z,31.29
2023-05-10T05:08:59.254Z,29.99
2023-05-10T05:09:59.296Z,30.49
2023-05-10T05:10:59.338Z,32.37
2023-05-10T05:11:59.356Z,29.64
2023-05-10T05:12:59.573Z,31.25
2023-05-10T05:13:59.467Z,31.52
2023-05-10T05:14:59.478Z,31.90
2023-05-10T05:15:59.563Z,32.41
2023-05-10T05:16:59.584Z,30.04
2023-05-10T05:17:59.656Z,29.59
2023-05-10T05:18:59.644Z,27.71
2023-05-10T05:19:59.688Z,28.90
2023-05-10T05:20:59.716Z,28.61
2023-05-10T05:21:59.791Z,33.44
2023-05-10T05:22:59.792Z,30.36
2023-05-10T05:23:59.817Z,32.96
2023-05-10T05:25:00.337Z,30.91
2023-05-10T05:25:59.961Z,30.49
2023-05-10T05:26:59.910Z,30.40
2023-05-10T05:27:59.946Z,27.13
2023-05-10T05:29:00.132Z,28.48
2023-05-10T05:30:00.116Z,31.59
2023-05-10T05:31:00.276Z,30.48
2023-05-10T05:32:00.285Z,28.39
2023-05-10T05:33:00.189Z,29.34
2023-05-10T05:34:00.175Z,27.06
2023-05-10T05:35:00.226Z,30.10
2023-05-10T05:36:00.203Z,35.34
2023-05-10T05:37:00.297Z,40.58
2023-05-10T05:38:00.314Z,47.13
2023-05-10T05:39:00.300Z,45.57
2023-05-10T05:40:00.380Z,60.06
2023-05-10T05:41:00.500Z,68.43
2023-05-10T05:42:00.874Z,85.13
2023-05-10T05:43:00.618Z,90.79
2023-05-10T05:44:00.607Z,93.54
2023-05-10T05:45:00.998Z,102.30
2023-05-10T05:46:00.943Z,99.99
2023-05-10T05:47:00.899Z,109.47
2023-05-10T05:48:01.108Z,121.11
2023-05-10T05:49:00.911Z,124.98
2023-05-10T05:50:00.973Z,122.17
2023-05-10T05:51:00.991Z,120.09
2023-05-10T05:52:01.065Z,117.27
2023-05-10T05:53:01.127Z,117.24
2023-05-10T05:54:01.200Z,114.49
2023-05-10T05:55:01.255Z,112.36
2023-05-10T05:56:01.316Z,111.81
2023-05-10T05:57:01.688Z,106.13
2023-05-10T05:58:01.460Z,106.86
2023-05-10T05:59:01.786Z,107.36
2023-05-10T06:00:01.598Z,102.25
2023-05-10T06:01:01.611Z,99.46
2023-05-10T06:02:01.819Z,103.34
2023-05-10T06:03:01.865Z,93.37
2023-05-10T06:04:01.941Z,94.58
2023-05-10T06:05:01.920Z,92.17
2023-05-10T06:06:01.971Z,92.13
2023-05-10T06:07:02.000Z,89.82
2023-05-10T06:08:02.108Z,81.28
2023-05-10T06:09:02.123Z,71.65
2023-05-10T06:10:02.204Z,72.56
2023-05-10T06:11:02.232Z,69.61
2023-05-10T06:12:02.294Z,74.06
2023-05-10T06:13:02.415Z,69.16
2023-05-10T06:14:02.510Z,69.28
2023-05-10T06:15:02.456Z,66.84
2023-05-10T06:16:02.513Z,67.23
2023-05-10T06:17:02.714Z,79.38
2023-05-10T06:18:02.686Z,83.84
2023-05-10T06:19:02.762Z,98.22
2023-05-10T06:20:02.744Z,108.25
2023-05-10T06:21:02.811Z,115.16
2023-05-10T06:22:02.877Z,117.23
2023-05-10T06:23:03.929Z,124.68
2023-05-10T06:24:02.993Z,127.72
2023-05-10T06:25:03.079Z,129.90
2023-05-10T06:26:03.089Z,140.69
2023-05-10T06:27:03.132Z,146.94
2023-05-10T06:28:03.195Z,150.23
2023-05-10T06:29:03.277Z,153.49
2023-05-10T06:30:12.302Z,157.72
2023-05-10T06:31:04.349Z,158.10
2023-05-10T06:32:03.268Z,159.66
2023-05-10T06:33:03.295Z,168.09
2023-05-10T06:34:03.253Z,182.97
2023-05-10T06:35:03.280Z,194.71
2023-05-10T06:36:03.248Z,193.59
2023-05-10T06:37:03.244Z,187.20
2023-05-10T06:38:03.234Z,181.71
2023-05-10T06:39:03.255Z,188.04
2023-05-10T06:40:03.376Z,204.80
2023-05-10T06:41:03.250Z,226.37
2023-05-10T06:42:03.264Z,217.07
2023-05-10T06:43:03.433Z,221.29
2023-05-10T06:44:03.405Z,215.52
2023-05-10T06:45:03.893Z,209.70
2023-05-10T06:46:03.474Z,208.49
2023-05-10T06:47:03.457Z,202.53
2023-05-10T06:48:03.589Z,198.38
2023-05-10T06:49:03.531Z,196.64
2023-05-10T06:50:03.667Z,195.97
2023-05-10T06:51:03.636Z,194.73
2023-05-10T06:52:03.688Z,191.52
2023-05-10T06:53:03.713Z,192.38
2023-05-10T06:54:03.784Z,189.77
2023-05-10T06:55:03.884Z,190.34
2023-05-10T06:56:04.481Z,191.00
2023-05-10T06:57:04.806Z,187.23
2023-05-10T06:58:04.900Z,187.30
2023-05-10T06:59:03.975Z,182.31
2023-05-10T07:00:03.942Z,181.05
2023-05-10T07:01:04.031Z,178.33
2023-05-10T07:02:03.903Z,180.31
2023-05-10T07:03:03.977Z,175.66
2023-05-10T07:04:03.870Z,175.23
2023-05-10T07:05:03.886Z,174.25
2023-05-10T07:06:03.844Z,169.78
2023-05-10T07:07:03.842Z,172.61
2023-05-10T07:08:03.856Z,174.14
2023-05-10T07:09:03.947Z,187.94
2023-05-10T07:10:03.960Z,189.79
2023-05-10T07:11:04.045Z,186.76
2023-05-10T07:12:04.100Z,192.57
2023-05-10T07:13:04.155Z,198.65
2023-05-10T07:14:04.202Z,201.75
2023-05-10T07:15:04.246Z,211.98
2023-05-10T07:16:04.330Z,227.44
2023-05-10T07:17:04.369Z,234.77
2023-05-10T07:18:04.624Z,234.88
2023-05-10T07:19:04.420Z,232.63
2023-05-10T07:20:04.516Z,242.05
2023-05-10T07:21:04.606Z,245.32
2023-05-10T07:22:04.651Z,246.21
2023-05-10T07:23:04.606Z,247.08
2023-05-10T07:24:04.685Z,243.33
2023-05-10T07:25:04.821Z,243.37
2023-05-10T07:26:04.840Z,242.86
2023-05-10T07:27:04.876Z,245.99
2023-05-10T07:28:04.926Z,242.82
2023-05-10T07:29:04.984Z,243.10
2023-05-10T07:30:05.144Z,247.77
2023-05-10T07:31:05.177Z,247.22
2023-05-10T07:32:05.440Z,238.96
2023-05-10T07:33:05.277Z,228.59
2023-05-10T07:34:05.281Z,225.70
2023-05-10T07:35:05.474Z,225.63
2023-05-10T07:36:05.418Z,209.20
2023-05-10T07:37:05.552Z,201.65
2023-05-10T07:38:05.495Z,211.55
2023-05-10T07:39:05.539Z,211.27
2023-05-10T07:40:05.590Z,207.25
2023-05-10T07:41:05.785Z,205.38
2023-05-10T07:42:05.725Z,199.37
2023-05-10T07:43:05.778Z,195.53
2023-05-10T07:44:05.830Z,199.20
2023-05-10T07:45:05.857Z,200.74
2023-05-10T07:46:05.942Z,198.27
2023-05-10T07:47:05.957Z,201.19
2023-05-10T07:48:06.058Z,203.79
2023-05-10T07:49:06.062Z,199.59
2023-05-10T07:50:06.414Z,206.32
2023-05-10T07:51:06.153Z,196.72
2023-05-10T07:52:06.209Z,199.56
2023-05-10T07:53:06.257Z,204.27
2023-05-10T07:54:06.344Z,204.04
2023-05-10T07:55:06.432Z,204.27
2023-05-10T07:56:06.413Z,199.04
2023-05-10T07:57:06.457Z,198.38
2023-05-10T07:58:06.513Z,199.68
2023-05-10T07:59:06.619Z,198.74
2023-05-10T08:00:07.428Z,197.34
2023-05-10T08:01:06.676Z,197.59
2023-05-10T08:02:06.723Z,188.69
2023-05-10T08:03:06.833Z,193.98
2023-05-10T08:04:07.072Z,194.03
2023-05-10T08:05:06.872Z,200.45
2023-05-10T08:06:06.892Z,197.67
2023-05-10T08:07:06.937Z,195.09
2023-05-10T08:08:06.971Z,194.71
2023-05-10T08:09:07.006Z,198.72
2023-05-10T08:10:07.099Z,197.14
2023-05-10T08:11:07.118Z,200.52
2023-05-10T08:12:07.150Z,192.82
2023-05-10T08:13:07.187Z,190.77
2023-05-10T08:14:07.249Z,196.05
2023-05-10T08:15:07.303Z,199.07
2023-05-10T08:16:07.365Z,196.76
2023-05-10T08:17:07.369Z,200.12
2023-05-10T08:18:07.498Z,196.80
2023-05-10T08:19:07.562Z,195.90
2023-05-10T08:20:07.565Z,193.84
2023-05-10T08:21:07.572Z,187.19
2023-05-10T08:22:07.617Z,192.06
2023-05-10T08:23:07.645Z,193.50
2023-05-10T08:24:07.708Z,192.07
2023-05-10T08:25:07.754Z,199.30
2023-05-10T08:26:07.774Z,194.56
2023-05-10T08:27:07.872Z,191.38
2023-05-10T08:28:08.879Z,196.61
2023-05-10T08:29:07.927Z,183.36
2023-05-10T08:30:07.966Z,181.28
2023-05-10T08:31:08.068Z,191.86
2023-05-10T08:32:08.042Z,189.41
2023-05-10T08:33:08.140Z,178.97
2023-05-10T08:34:08.153Z,182.64
2023-05-10T08:35:08.179Z,182.95
2023-05-10T08:36:08.245Z,188.61
2023-05-10T08:37:08.278Z,191.47
2023-05-10T08:38:08.413Z,193.53
2023-05-10T08:39:16.249Z,194.15
2023-05-10T08:40:09.502Z,194.17
2023-05-10T08:41:08.375Z,194.19
2023-05-10T08:42:08.411Z,194.52
2023-05-10T08:43:08.359Z,191.74
2023-05-10T08:44:08.391Z,191.48
2023-05-10T08:45:08.432Z,195.50
2023-05-10T08:46:08.423Z,196.93
2023-05-10T08:47:08.500Z,198.38
2023-05-10T08:48:08.384Z,198.45
2023-05-10T08:49:08.330Z,200.54
2023-05-10T08:50:08.443Z,206.29
2023-05-10T08:51:08.345Z,207.12
2023-05-10T08:52:08.437Z,214.69
2023-05-10T08:53:08.420Z,217.95
2023-05-10T08:54:08.480Z,220.30
2023-05-10T08:55:08.494Z,226.37
2023-05-10T08:56:08.498Z,228.44
2023-05-10T08:57:08.576Z,232.42
2023-05-10T08:58:08.597Z,239.76
2023-05-10T08:59:08.598Z,241.48
2023-05-10T09:00:08.681Z,243.67
2023-05-10T09:01:08.698Z,248.86
2023-05-10T09:02:08.703Z,248.60
2023-05-10T09:03:08.777Z,245.49
2023-05-10T09:04:08.870Z,250.00
2023-05-10T09:05:08.940Z,250.00
2023-05-10T09:06:08.840Z,247.69
2023-05-10T09:07:08.874Z,249.11
2023-05-10T09:08:08.926Z,245.33
2023-05-10T09:09:08.945Z,244.50
2023-05-10T09:10:09.096Z,249.77
2023-05-10T09:11:08.997Z,249.44
2023-05-10T09:12:09.064Z,249.08
2023-05-10T09:13:09.128Z,249.02
2023-05-10T09:14:09.103Z,250.00
2023-05-10T09:15:09.121Z,249.27
2023-05-10T09:16:20.462Z,249.08
2023-05-10T09:17:10.222Z,249.35
2023-05-10T09:18:09.213Z,250.02
2023-05-10T09:19:09.153Z,251.88
2023-05-10T09:20:09.093Z,254.95
2023-05-10T09:21:09.072Z,257.84
2023-05-10T09:22:09.079Z,248.69
2023-05-10T09:23:09.062Z,248.14
2023-05-10T09:24:09.110Z,248.19
2023-05-10T09:25:09.075Z,248.68
2023-05-10T09:26:09.048Z,247.16
2023-05-10T09:27:09.042Z,247.70
2023-05-10T09:28:09.051Z,249.58
2023-05-10T09:29:09.015Z,249.66
2023-05-10T09:30:09.076Z,248.08
2023-05-10T09:31:09.128Z,247.31
2023-05-10T09:32:09.013Z,246.94
2023-05-10T09:33:08.976Z,220.18
2023-05-10T09:34:09.012Z,199.10
2023-05-10T09:35:09.001Z,202.90
2023-05-10T09:36:08.986Z,179.70
2023-05-10T09:37:09.002Z,179.19
2023-05-10T09:38:09.025Z,190.85
2023-05-10T09:39:09.048Z,196.92
2023-05-10T09:40:09.082Z,200.74
2023-05-10T09:41:09.150Z,204.83
2023-05-10T09:42:09.201Z,201.99
2023-05-10T09:43:09.192Z,202.27
2023-05-10T09:44:09.200Z,203.69
2023-05-10T09:45:09.242Z,207.50
2023-05-10T09:46:09.355Z,203.68
2023-05-10T09:47:09.321Z,209.28
2023-05-10T09:48:09.561Z,206.24
2023-05-10T09:49:09.425Z,210.94
2023-05-10T09:50:09.390Z,211.34
2023-05-10T09:51:09.487Z,209.14
2023-05-10T09:52:09.507Z,211.78
2023-05-10T09:53:09.496Z,209.25
2023-05-10T09:54:09.522Z,206.38
2023-05-10T09:55:09.577Z,204.62
2023-05-10T09:56:09.637Z,203.17
2023-05-10T09:57:09.613Z,204.00
2023-05-10T09:58:09.650Z,201.27
2023-05-10T09:59:09.692Z,202.18
2023-05-10T10:00:09.795Z,204.70
2023-05-10T10:01:09.856Z,203.41
2023-05-10T10:02:09.816Z,200.24
2023-05-10T10:03:09.881Z,199.32
2023-05-10T10:04:09.896Z,200.16
2023-05-10T10:05:10.072Z,197.10
2023-05-10T10:06:18.852Z,197.99
2023-05-10T10:07:10.969Z,198.13
2023-05-10T10:08:09.997Z,198.29
2023-05-10T10:09:09.959Z,196.68
2023-05-10T10:10:09.997Z,198.21
2023-05-10T10:11:09.979Z,197.66
2023-05-10T10:12:09.947Z,194.90
2023-05-10T10:13:10.055Z,193.95
2023-05-10T10:14:09.949Z,194.19
2023-05-10T10:15:09.941Z,194.84
2023-05-10T10:16:09.990Z,191.84
2023-05-10T10:17:09.962Z,192.43
2023-05-10T10:18:09.909Z,193.83
2023-05-10T10:19:09.914Z,191.51
2023-05-10T10:20:11.876Z,191.31
2023-05-10T10:21:10.048Z,191.43
2023-05-10T10:22:10.032Z,189.51
2023-05-10T10:23:10.061Z,190.53
2023-05-10T10:24:10.150Z,189.53
2023-05-10T10:25:10.159Z,192.38
2023-05-10T10:26:10.242Z,189.47
2023-05-10T10:27:10.299Z,191.74
2023-05-10T10:28:10.340Z,188.18
2023-05-10T10:29:10.343Z,188.77
2023-05-10T10:30:10.402Z,189.81
2023-05-10T10:31:10.512Z,187.51
2023-05-10T10:32:11.522Z,188.88
2023-05-10T10:33:24.347Z,190.04
2023-05-10T10:34:11.580Z,190.07
2023-05-10T10:35:10.533Z,190.34
2023-05-10T10:36:10.523Z,190.21
2023-05-10T10:37:11.599Z,188.72
2023-05-10T10:38:10.519Z,189.37
2023-05-10T10:39:10.507Z,187.02
2023-05-10T10:40:10.505Z,184.05
2023-05-10T10:41:10.488Z,182.26
2023-05-10T10:42:10.483Z,180.75
2023-05-10T10:43:10.514Z,183.32
2023-05-10T10:44:10.531Z,180.84
2023-05-10T10:45:10.471Z,183.73
2023-05-10T10:46:11.075Z,183.01
2023-05-10T10:47:10.737Z,181.77
2023-05-10T10:48:10.634Z,180.82
2023-05-10T10:49:10.698Z,181.22
2023-05-10T10:50:10.712Z,180.57
2023-05-10T10:51:12.752Z,179.66
2023-05-10T10:52:10.816Z,176.79
2023-05-10T10:53:10.889Z,177.83
2023-05-10T10:54:10.884Z,177.01
2023-05-10T10:55:11.000Z,175.41
2023-05-10T10:56:11.018Z,175.08
2023-05-10T10:57:11.035Z,172.81
2023-05-10T10:58:11.092Z,175.61
2023-05-10T10:59:11.142Z,176.27
2023-05-10T11:00:11.271Z,175.94
2023-05-10T11:01:11.315Z,171.48
2023-05-10T11:02:11.283Z,174.31
2023-05-10T11:03:11.380Z,170.98
2023-05-10T11:04:11.508Z,170.57
2023-05-10T11:05:11.446Z,164.47
2023-05-10T11:06:11.526Z,164.12
2023-05-10T11:07:11.556Z,163.08
2023-05-10T11:08:11.601Z,162.50
2023-05-10T11:09:11.630Z,164.25
2023-05-10T11:10:11.727Z,166.91
2023-05-10T11:11:11.770Z,168.64
2023-05-10T11:12:11.809Z,170.92
2023-05-10T11:13:11.877Z,174.95
2023-05-10T11:14:11.950Z,176.70
2023-05-10T11:15:11.945Z,177.94
2023-05-10T11:16:12.041Z,182.74
2023-05-10T11:17:12.040Z,185.86
2023-05-10T11:18:12.095Z,179.40
2023-05-10T11:19:12.182Z,181.59
2023-05-10T11:20:12.181Z,188.64
2023-05-10T11:21:12.596Z,186.72
2023-05-10T11:22:12.221Z,188.08
2023-05-10T11:23:12.264Z,185.44
2023-05-10T11:24:12.300Z,189.21
2023-05-10T11:25:12.343Z,188.57
2023-05-10T11:26:12.451Z,188.33
2023-05-10T11:27:12.440Z,192.06
2023-05-10T11:28:12.488Z,190.30
2023-05-10T11:29:12.519Z,187.48
2023-05-10T11:30:12.577Z,187.40
2023-05-10T11:31:12.661Z,188.40
2023-05-10T11:32:12.652Z,185.35
2023-05-10T11:33:12.756Z,189.22
2023-05-10T11:34:12.764Z,187.96
2023-05-10T11:35:12.765Z,186.42
2023-05-10T11:36:12.824Z,189.67
2023-05-10T11:37:12.870Z,187.50
2023-05-10T11:38:12.907Z,188.62
2023-05-10T11:39:12.960Z,187.15
2023-05-10T11:40:13.036Z,183.48
2023-05-10T11:41:13.133Z,180.54
2023-05-10T11:42:13.104Z,181.33
2023-05-10T11:43:13.191Z,179.50
2023-05-10T11:44:13.201Z,179.15
2023-05-10T11:45:13.224Z,178.32
2023-05-10T11:46:13.348Z,178.22
2023-05-10T11:47:13.324Z,173.96
2023-05-10T11:48:13.465Z,176.16
2023-05-10T11:49:13.445Z,172.67
2023-05-10T11:50:13.521Z,176.99
2023-05-10T11:51:13.505Z,174.51
2023-05-10T11:52:13.576Z,172.88
2023-05-10T11:53:13.616Z,175.47
2023-05-10T11:54:13.653Z,173.02
2023-05-10T11:55:13.699Z,171.33
2023-05-10T11:56:13.748Z,173.61
2023-05-10T11:57:13.798Z,172.71
2023-05-10T11:58:13.824Z,171.99
2023-05-10T11:59:14.510Z,174.67
2023-05-10T12:00:13.987Z,174.40
2023-05-10T12:01:13.967Z,174.73
2023-05-10T12:02:14.000Z,171.94
2023-05-10T12:03:14.165Z,166.80
2023-05-10T12:04:14.235Z,171.59
2023-05-10T12:05:14.155Z,167.51
2023-05-10T12:06:14.199Z,171.90
2023-05-10T12:07:14.221Z,168.02
2023-05-10T12:08:14.310Z,169.72
2023-05-10T12:09:14.327Z,168.62
2023-05-10T12:10:14.548Z,168.77
2023-05-10T12:11:14.400Z,164.14
2023-05-10T12:12:14.454Z,161.55
2023-05-10T12:13:14.501Z,159.47
2023-05-10T12:14:14.565Z,162.11
2023-05-10T12:15:14.595Z,161.15
2023-05-10T12:16:14.716Z,159.74
2023-05-10T12:17:14.704Z,157.97
2023-05-10T12:18:14.827Z,158.54
2023-05-10T12:19:14.801Z,156.62
2023-05-10T12:20:15.149Z,157.17
2023-05-10T12:21:14.958Z,156.58
2023-05-10T12:22:14.958Z,155.64
2023-05-10T12:23:15.011Z,151.84
2023-05-10T12:24:15.019Z,156.11
2023-05-10T12:25:15.073Z,153.68
2023-05-10T12:26:15.141Z,153.37
2023-05-10T12:27:15.183Z,152.42
2023-05-10T12:28:15.212Z,148.28
2023-05-10T12:29:15.268Z,149.56
2023-05-10T12:30:15.545Z,150.25
2023-05-10T12:31:15.555Z,148.84
2023-05-10T12:32:15.486Z,148.72
2023-05-10T12:33:15.575Z,146.75
2023-05-10T12:34:15.557Z,145.96
2023-05-10T12:35:15.593Z,148.04
2023-05-10T12:36:15.701Z,145.88
2023-05-10T12:37:15.697Z,144.88
2023-05-10T12:38:15.777Z,147.14
2023-05-10T12:39:15.859Z,143.89
2023-05-10T12:40:16.017Z,141.88
2023-05-10T12:41:15.946Z,140.27
2023-05-10T12:42:16.017Z,141.02
2023-05-10T12:43:16.020Z,140.55
2023-05-10T12:44:16.101Z,141.09
2023-05-10T12:45:16.135Z,142.97
2023-05-10T12:46:16.303Z,138.50
2023-05-10T12:47:16.274Z,136.47
2023-05-10T12:48:16.315Z,142.99